PWSweather.com
Personal Weather Stations
Station Observations
SWHWX01
St AppolinardFR 38160

St AppolinardFR 38160

Lat: 45.191, Lon: 5.268

Elevation: 1460

Station Type: Davis Vantage Pro2 Plus

www.sweetwebhome.com/?show=wxindex

High Low Average
Temperature 70.9°F21.6°C 55.0°F12.8°C 61.9°F16.6°C
Dew Point 55.0°F12.8°C 49.5°F9.7°C 51.8°F11.0°C
Winds 6.5 mph 10.5 kmh Calm Calm 2.0 mph SW3.2 kmh SW
Wind Gusts 8.0 mph12.9 kmh -- 3.0 mph4.8 kmh
Humidity 87% 50% 71%
Pressure 30.06 in1017.9 mb 29.94 in1013.9 mb -
Precipitation 0.00 in0.0 mm - -
Hour Temp Dew Point Humidity Winds Wind Gusts Pressure Precip Precip Rate Daily Precip Total
12:00 AM 58.2°F14.6°C 53.1°F11.7°C 83% 3.3 mph S5.3 kmh S 4.0 mph6.4 kmh 30.06 in1017.9 mb - 0.00 in0.0 mm 0.00 in0.0 mm
12:30 AM 59.4°F15.2°C 53.6°F12.0°C 81% 2.4 mph S3.9 kmh S 3.0 mph4.8 kmh 30.05 in1017.6 mb - 0.00 in0.0 mm 0.00 in0.0 mm
01:00 AM 59.4°F15.2°C 53.6°F12.0°C 81% 2.2 mph S3.5 kmh S 3.0 mph4.8 kmh 30.05 in1017.6 mb - 0.00 in0.0 mm 0.00 in0.0 mm
01:30 AM 58.6°F14.8°C 53.1°F11.7°C 82% 3.1 mph S5.0 kmh S 4.0 mph6.4 kmh 30.04 in1017.3 mb - 0.00 in0.0 mm 0.00 in0.0 mm
02:00 AM 59.7°F15.4°C 52.4°F11.3°C 77% 0.2 mph S0.3 kmh S 1.0 mph1.6 kmh 30.04 in1017.3 mb - 0.00 in0.0 mm 0.00 in0.0 mm
02:30 AM 58.0°F14.4°C 51.2°F10.7°C 78% Calm Calm -- 30.03 in1016.9 mb - 0.00 in0.0 mm 0.00 in0.0 mm
03:00 AM 58.0°F14.4°C 50.8°F10.4°C 77% 0.1 mph S0.2 kmh S -- 30.02 in1016.6 mb - 0.00 in0.0 mm 0.00 in0.0 mm
03:30 AM 58.6°F14.8°C 51.1°F10.6°C 76% 2.7 mph S4.3 kmh S 3.0 mph4.8 kmh 30.02 in1016.6 mb - 0.00 in0.0 mm 0.00 in0.0 mm
04:00 AM 58.1°F14.5°C 50.6°F10.3°C 76% Calm Calm -- 30.01 in1016.3 mb - 0.00 in0.0 mm 0.00 in0.0 mm
04:30 AM 58.0°F14.4°C 50.5°F10.3°C 76% 1.8 mph S2.9 kmh S 2.0 mph3.2 kmh 30.02 in1016.6 mb - 0.00 in0.0 mm 0.00 in0.0 mm
05:00 AM 57.3°F14.1°C 50.2°F10.1°C 77% Calm Calm -- 30.02 in1016.6 mb - 0.00 in0.0 mm 0.00 in0.0 mm
05:30 AM 56.9°F13.8°C 50.8°F10.4°C 80% 0.2 mph S0.3 kmh S 2.0 mph3.2 kmh 30.02 in1016.6 mb - 0.00 in0.0 mm 0.00 in0.0 mm
06:00 AM 56.1°F13.4°C 50.0°F10.0°C 80% 0.9 mph S1.4 kmh S 1.0 mph1.6 kmh 30.02 in1016.6 mb - 0.00 in0.0 mm 0.00 in0.0 mm
06:30 AM 55.6°F13.1°C 49.5°F9.7°C 80% 1.9 mph S3.1 kmh S 3.0 mph4.8 kmh 30.02 in1016.6 mb - 0.00 in0.0 mm 0.00 in0.0 mm
07:00 AM 55.6°F13.1°C 50.5°F10.3°C 83% Calm Calm -- 30.02 in1016.6 mb - 0.00 in0.0 mm 0.00 in0.0 mm
07:30 AM 55.4°F13.0°C 50.6°F10.3°C 84% 1.3 mph S2.1 kmh S 2.0 mph3.2 kmh 30.02 in1016.6 mb - 0.00 in0.0 mm 0.00 in0.0 mm
08:00 AM 55.0°F12.8°C 50.6°F10.3°C 85% 2.4 mph S3.9 kmh S 3.0 mph4.8 kmh 30.02 in1016.6 mb - 0.00 in0.0 mm 0.00 in0.0 mm
08:30 AM 56.2°F13.4°C 51.7°F10.9°C 85% Calm Calm -- 30.02 in1016.6 mb - 0.00 in0.0 mm 0.00 in0.0 mm
09:00 AM 56.4°F13.6°C 52.6°F11.4°C 87% 0.5 mph S0.8 kmh S 2.0 mph3.2 kmh 30.02 in1016.6 mb - 0.00 in0.0 mm 0.00 in0.0 mm
09:30 AM 57.2°F14.0°C 53.0°F11.7°C 86% Calm Calm -- 30.02 in1016.6 mb - 0.00 in0.0 mm 0.00 in0.0 mm
10:00 AM 58.6°F14.8°C 53.1°F11.7°C 82% 0.1 mph S0.2 kmh S 1.0 mph1.6 kmh 30.02 in1016.6 mb - 0.00 in0.0 mm 0.00 in0.0 mm
10:30 AM 62.9°F17.2°C 54.1°F12.3°C 73% 2.8 mph S4.5 kmh S 4.0 mph6.4 kmh 30.02 in1016.6 mb - 0.00 in0.0 mm 0.00 in0.0 mm
11:00 AM 64.8°F18.2°C 54.8°F12.7°C 70% 1.7 mph S2.7 kmh S 4.0 mph6.4 kmh 30.02 in1016.6 mb - 0.00 in0.0 mm 0.00 in0.0 mm
11:30 AM 66.2°F19.0°C 54.9°F12.7°C 67% 2.7 mph S4.3 kmh S 4.0 mph6.4 kmh 30.01 in1016.3 mb - 0.00 in0.0 mm 0.00 in0.0 mm
12:00 PM 67.6°F19.8°C 55.0°F12.8°C 64% 3.4 mph SE5.5 kmh SE 7.0 mph11.3 kmh 30.00 in1015.9 mb - 0.00 in0.0 mm 0.00 in0.0 mm
12:30 PM 68.3°F20.2°C 54.3°F12.4°C 61% 0.3 mph SE0.5 kmh SE 3.0 mph4.8 kmh 29.99 in1015.6 mb - 0.00 in0.0 mm 0.00 in0.0 mm
01:00 PM 69.7°F20.9°C 54.3°F12.4°C 58% 0.4 mph SE0.6 kmh SE 2.0 mph3.2 kmh 29.98 in1015.2 mb - 0.00 in0.0 mm 0.00 in0.0 mm
01:30 PM 70.5°F21.4°C 52.6°F11.4°C 53% 5.3 mph NW8.5 kmh NW 8.0 mph12.9 kmh 29.97 in1014.9 mb - 0.00 in0.0 mm 0.00 in0.0 mm
02:00 PM 69.7°F20.9°C 52.3°F11.3°C 54% 3.7 mph NW6.0 kmh NW 6.0 mph9.7 kmh 29.96 in1014.6 mb - 0.00 in0.0 mm 0.00 in0.0 mm
02:30 PM 70.1°F21.2°C 52.2°F11.2°C 53% 3.3 mph NE5.3 kmh NE 4.0 mph6.4 kmh 29.95 in1014.2 mb - 0.00 in0.0 mm 0.00 in0.0 mm
03:00 PM 70.4°F21.3°C 51.4°F10.8°C 51% 3.5 mph NE5.6 kmh NE 8.0 mph12.9 kmh 29.95 in1014.2 mb - 0.00 in0.0 mm 0.00 in0.0 mm
03:30 PM 70.9°F21.6°C 51.3°F10.7°C 50% 1.7 mph NW2.7 kmh NW 5.0 mph8.0 kmh 29.94 in1013.9 mb - 0.00 in0.0 mm 0.00 in0.0 mm
04:00 PM 70.0°F21.1°C 51.0°F10.6°C 51% 6.5 mph NNW10.5 kmh NNW 8.0 mph12.9 kmh 29.94 in1013.9 mb - 0.00 in0.0 mm 0.00 in0.0 mm
04:30 PM 69.4°F20.8°C 52.5°F11.4°C 55% 0.9 mph NNW1.4 kmh NNW 2.0 mph3.2 kmh 29.94 in1013.9 mb - 0.00 in0.0 mm 0.00 in0.0 mm
05:00 PM 67.2°F19.6°C 52.4°F11.3°C 59% 2.2 mph NNW3.5 kmh NNW 6.0 mph9.7 kmh 29.94 in1013.9 mb - 0.00 in0.0 mm 0.00 in0.0 mm
05:30 PM 65.1°F18.4°C 51.8°F11.0°C 62% 2.5 mph NNW4.0 kmh NNW 4.0 mph6.4 kmh 29.94 in1013.9 mb - 0.00 in0.0 mm 0.00 in0.0 mm
06:00 PM 63.4°F17.4°C 51.8°F11.0°C 66% 4.7 mph NNW7.6 kmh NNW 7.0 mph11.3 kmh 29.95 in1014.2 mb - 0.00 in0.0 mm 0.00 in0.0 mm
06:30 PM 63.3°F17.4°C 51.7°F10.9°C 66% 4.6 mph NNW7.4 kmh NNW 6.0 mph9.7 kmh 29.95 in1014.2 mb - 0.00 in0.0 mm 0.00 in0.0 mm
07:00 PM 62.5°F16.9°C 51.4°F10.8°C 67% 3.4 mph NNW5.5 kmh NNW 4.0 mph6.4 kmh 29.96 in1014.6 mb - 0.00 in0.0 mm 0.00 in0.0 mm
07:30 PM 61.7°F16.5°C 51.0°F10.6°C 68% 5.2 mph NNW8.4 kmh NNW 7.0 mph11.3 kmh 29.96 in1014.6 mb - 0.00 in0.0 mm 0.00 in0.0 mm
08:00 PM 60.9°F16.1°C 50.7°F10.4°C 69% 1.9 mph NNW3.1 kmh NNW 4.0 mph6.4 kmh 29.97 in1014.9 mb - 0.00 in0.0 mm 0.00 in0.0 mm
08:30 PM 60.8°F16.0°C 50.2°F10.1°C 68% 4.2 mph NNW6.8 kmh NNW 5.0 mph8.0 kmh 29.97 in1014.9 mb - 0.00 in0.0 mm 0.00 in0.0 mm
09:00 PM 60.9°F16.1°C 50.3°F10.2°C 68% 1.0 mph NNW1.6 kmh NNW 3.0 mph4.8 kmh 29.97 in1014.9 mb - 0.00 in0.0 mm 0.00 in0.0 mm
09:30 PM 61.3°F16.3°C 50.6°F10.3°C 68% 1.5 mph NNW2.4 kmh NNW 4.0 mph6.4 kmh 29.97 in1014.9 mb - 0.00 in0.0 mm 0.00 in0.0 mm
10:00 PM 61.9°F16.6°C 50.4°F10.2°C 66% 2.7 mph NNW4.3 kmh NNW 4.0 mph6.4 kmh 29.97 in1014.9 mb - 0.00 in0.0 mm 0.00 in0.0 mm
10:30 PM 62.0°F16.7°C 50.1°F10.1°C 65% 1.9 mph NNW3.1 kmh NNW 2.0 mph3.2 kmh 29.97 in1014.9 mb - 0.00 in0.0 mm 0.00 in0.0 mm
11:00 PM 61.1°F16.2°C 50.8°F10.4°C 69% 3.5 mph NNW5.6 kmh NNW 5.0 mph8.0 kmh 29.98 in1015.2 mb - 0.00 in0.0 mm 0.00 in0.0 mm
11:30 PM 60.2°F15.7°C 50.8°F10.4°C 71% 3.1 mph NNW5.0 kmh NNW 4.0 mph6.4 kmh 29.97 in1014.9 mb - 0.00 in0.0 mm 0.00 in0.0 mm